Grantley Adams, Barbados

6:23 PM AST on October 01, 2014 (GMT -0400)
Grantley Adams International | Change Station
CLOSE
Current Station
Airport
Location: Grantley Adams,
Elevation: 184 ft
Nearby Weather Stations

Elev 184 ft 13.07 °N, 59.49 °W | Updated 23 minutes ago

Light Rain Showers
Light Showers Rain
82 °F
Feels Like 91 °F
N
17
Wind Variable Wind from ENE

Today
High -- | Low -- °F
--% Chance of Precip.
Yesterday
High -- | Low -- °F
Precip. -- in
5:47 AM 5:47 PM
First Quarter, 51% visible
Pressure 29.95 in
Visibility 6.2 miles
Clouds Scattered Clouds 1200 ft
Scattered Clouds 28000 ft
Heat Index 91 °F
Dew Point 77 °F
Humidity 84%
Rainfall 0.00 in
Snow Depth Not available.
UV 0 out of 12
Pollen Not available.
Air Quality Not available.
Flu Activity Not available.
METAR TBPB 012200Z 07015KT 9999 -SHRA SCT012CB SCT280 28/25 Q1014

More Conditions Fewer Conditions

Pressure 29.95 in
Visibility 6.2 miles
Clouds Scattered Clouds 1200 ft
Scattered Clouds 28000 ft
Heat Index 91 °F
Dew Point 77 °F
Humidity 84%
Rainfall 0.00 in
Snow Depth Not available.
UV 0 out of 12
Pollen Not available.
Air Quality Not available.
Flu Activity Not available.
METAR TBPB 012200Z 07015KT 9999 -SHRA SCT012CB SCT280 28/25 Q1014

More Conditions Fewer Conditions

10-Day Weather Forecast

Almanac

Astronomy

Oct. 01, 2014 Rise Set
Actual Time 5:47 AM AST 5:47 PM AST
Civil Twilight 5:25 AM AST 6:08 PM AST
Nautical Twilight 5:01 AM AST 6:33 PM AST
Astronomical Twilight 4:36 AM AST 6:58 PM AST
Moon 12:02 PM AST 11:53 PM AST
Length of Visible Light 12h 42m
Length of Day
12h 00m
Tomorrow will be 0m 42s shorter.
First Quarter, 51% of the Moon is Illuminated
Today
First Quarter
Oct 8
Full
Oct 15
Last Quarter
Oct 23
New
Oct 30
First Quarter

Today's Extremes

Country Highs Country Lows

Community

WunderPhotos

Upload Photos

1,758,058 photos uploaded!

WunderBlogs® & News

By Dr. Jeff Masters
Director of Meteorology, Weather Underground
By Kari Strenfel
Meteorologist, Weather Underground
By Christopher C. Burt
Weather Historian, Weather Underground
October 1, 2014
October 1, 2014
October 1, 2014

Nearby

Snow Depth

Not available.

Earthquake Activity

City Distance Mag. Time & Date
No recent earthquake activity has been reported nearby.
Minimum magnitude displayed is 2.5.

Coastal Water Temperatures

Place Temperature
No Stations Reporting

Nearby Weather Stations